ZM-0021 weather

Bwanda Airport
Bwanda, Southern Province, Zambia

Public forecast

Using degrees Celsius for public forecast. Weather courtesy of forecast.io.

METAR (pilot weather report)

Report is more than 6 hours old.

Closest report is Choma Airport, 48.6 nm (90.0 km) SSW. Retrieved 2010/07/23 06:00 UTC (9 years ago):

FLCH 230600Z 00903KT CAVOK 12/09

TAF (pilot weather forecast)

Closest forecast is Kenneth Kaunda International Airport Lusaka, 80.6 nm (149.3 km) ENE. Retrieved 2019/08/17 12:00 UTC (38 minutes ago):

TAF FLKK 171000Z 1712/1818 10010KT 9000 HZ NSC FM17180 VRB03KT CAVOK BECMG 1804/1806 09005KT 9000 HZ NSC BECMG 1810/1812 12010KT